Time;durP1;ratioP1;P1;durP2;ratioP2;P2;SDS_P1;SDS_P2;PMS_P1;PMS_P2;Temp;Humidity;BMP_temperature;BMP_pressure;BME280_temperature;BME280_humidity;BME280_pressure;Samples;Min_cycle;Max_cycle;Signal;HPM_P1;HPM_P2
2021/11/04 00:02:17;;;;;;;0.95;0.80;;;21.40;53.20;;;;;;6253931;28;20064;-65
2021/11/04 00:05:18;;;;;;;0.60;0.60;;;21.40;53.20;;;;;;6267877;28;20021;-66
2021/11/04 00:08:19;;;;;;;1.10;0.73;;;21.40;53.20;;;;;;6251655;28;20044;-67
2021/11/04 00:11:20;;;;;;;0.68;0.63;;;21.40;53.20;;;;;;6243392;28;20405;-67
2021/11/04 00:14:21;;;;;;;1.00;0.90;;;21.40;53.20;;;;;;6219419;28;20026;-67
2021/11/04 00:17:21;;;;;;;1.25;0.60;;;21.40;53.20;;;;;;6233091;28;20021;-66
2021/11/04 00:20:22;;;;;;;0.80;0.70;;;21.40;53.20;;;;;;6268161;28;20141;-67
2021/11/04 00:23:23;;;;;;;0.93;0.80;;;21.40;53.20;;;;;;6253220;28;20025;-66
2021/11/04 00:26:24;;;;;;;0.70;0.70;;;21.40;53.20;;;;;;6251816;28;20064;-66
2021/11/04 00:29:25;;;;;;;0.63;0.63;;;21.40;53.20;;;;;;6267856;28;20039;-66
2021/11/04 00:32:25;;;;;;;0.60;0.57;;;21.40;53.20;;;;;;6266612;28;20025;-66
2021/11/04 00:35:26;;;;;;;0.80;0.70;;;21.40;53.20;;;;;;6268204;28;20017;-66
2021/11/04 00:38:27;;;;;;;0.90;0.70;;;21.40;53.20;;;;;;6267930;28;20029;-66
2021/11/04 00:41:27;;;;;;;0.73;0.60;;;21.40;53.20;;;;;;6267873;28;20032;-67
2021/11/04 00:44:28;;;;;;;1.10;0.52;;;21.40;53.30;;;;;;6260589;28;20036;-66
2021/11/04 00:47:29;;;;;;;0.90;0.70;;;21.40;53.20;;;;;;6258370;28;20029;-65
2021/11/04 00:50:30;;;;;;;1.00;0.90;;;21.40;53.20;;;;;;6266231;28;20037;-66
2021/11/04 00:53:31;;;;;;;1.00;0.75;;;21.40;53.20;;;;;;6267324;28;20021;-66
2021/11/04 00:56:32;;;;;;;1.17;0.70;;;21.40;53.20;;;;;;6260979;28;20022;-66
2021/11/04 00:59:32;;;;;;;1.02;0.90;;;21.40;53.20;;;;;;6241820;28;20483;-65
2021/11/04 01:02:33;;;;;;;1.00;0.80;;;21.40;53.20;;;;;;6256452;28;20104;-66
2021/11/04 01:05:34;;;;;;;1.80;1.00;;;21.40;53.30;;;;;;6271573;28;20028;-66
2021/11/04 01:08:35;;;;;;;1.10;0.90;;;21.40;53.20;;;;;;6273084;28;20082;-66
2021/11/04 01:11:35;;;;;;;1.05;0.70;;;21.50;53.40;;;;;;6272438;28;20125;-66
2021/11/04 01:14:36;;;;;;;0.77;0.70;;;21.40;53.30;;;;;;6272790;28;20091;-66
2021/11/04 01:17:37;;;;;;;1.17;0.80;;;21.40;53.30;;;;;;6264156;28;20048;-67
2021/11/04 01:20:38;;;;;;;1.20;0.77;;;21.40;53.20;;;;;;6246252;28;20025;-67
2021/11/04 01:23:39;;;;;;;0.90;0.70;;;21.40;53.20;;;;;;6263675;28;20036;-66
2021/11/04 01:26:40;;;;;;;1.42;0.90;;;21.40;53.20;;;;;;6255271;28;20057;-67
2021/11/04 01:29:41;;;;;;;1.15;0.70;;;21.40;53.20;;;;;;6241082;28;20033;-66
2021/11/04 01:32:41;;;;;;;0.77;0.65;;;21.40;53.20;;;;;;6223132;28;20065;-66
2021/11/04 01:35:42;;;;;;;0.88;0.70;;;21.40;53.20;;;;;;6259836;28;20021;-66
2021/11/04 01:38:43;;;;;;;1.10;0.88;;;21.40;53.20;;;;;;6247376;28;20079;-66
2021/11/04 01:41:43;;;;;;;1.05;0.77;;;21.40;53.30;;;;;;6256139;28;20103;-66
2021/11/04 01:44:45;;;;;;;1.10;0.80;;;21.40;53.20;;;;;;6272202;28;20079;-66
2021/11/04 01:47:47;;;;;;;0.80;0.68;;;21.40;53.30;;;;;;6271622;28;20028;-65
2021/11/04 01:50:47;;;;;;;1.30;0.90;;;21.40;53.20;;;;;;6258110;28;20028;-69
2021/11/04 01:53:49;;;;;;;0.80;0.68;;;21.40;53.20;;;;;;6271494;28;20025;-70
2021/11/04 01:56:50;;;;;;;1.05;0.80;;;21.40;53.20;;;;;;6271393;28;20025;-69
2021/11/04 01:59:50;;;;;;;0.80;0.60;;;21.40;53.30;;;;;;6271219;28;20360;-70
2021/11/04 02:03:14;;;;;;;1.13;0.82;;;21.40;53.30;;;;;;6268920;28;20036;-70
2021/11/04 02:06:47;;;;;;;0.90;0.70;;;21.40;53.30;;;;;;6270560;28;20064;-69
2021/11/04 02:10:03;;;;;;;1.20;0.77;;;21.40;53.30;;;;;;6221517;28;20422;-69
2021/11/04 02:13:15;;;;;;;1.13;0.80;;;21.40;53.30;;;;;;6247981;28;20103;-70
2021/11/04 02:16:16;;;;;;;1.02;0.85;;;21.40;53.30;;;;;;6270852;28;20025;-69
2021/11/04 02:19:38;;;;;;;0.80;0.70;;;21.40;53.30;;;;;;6241760;28;20499;-71
2021/11/04 02:22:59;;;;;;;0.85;0.77;;;21.40;53.30;;;;;;6238190;28;20047;-70
2021/11/04 02:26:02;;;;;;;1.42;0.77;;;21.40;53.30;;;;;;6264327;28;20021;-69
2021/11/04 02:29:04;;;;;;;0.80;0.70;;;21.40;53.30;;;;;;6269267;28;20470;-70
2021/11/04 02:32:07;;;;;;;1.30;1.00;;;21.40;53.30;;;;;;6259182;28;20024;-70
2021/11/04 02:35:09;;;;;;;0.95;0.80;;;21.40;53.30;;;;;;6269317;28;20027;-69
2021/11/04 02:38:10;;;;;;;1.27;0.90;;;21.40;53.30;;;;;;6268421;28;20020;-70
2021/11/04 02:41:11;;;;;;;1.30;1.00;;;21.40;53.20;;;;;;6268813;28;20032;-69
2021/11/04 02:44:12;;;;;;;1.48;0.90;;;21.40;53.30;;;;;;6268560;28;20439;-72
2021/11/04 02:47:13;;;;;;;1.23;0.80;;;21.40;53.30;;;;;;6270527;28;20025;-69
2021/11/04 02:50:16;;;;;;;1.02;0.88;;;21.40;53.30;;;;;;6269852;28;20033;-69
2021/11/04 02:53:20;;;;;;;0.93;0.68;;;21.40;53.30;;;;;;6269681;28;20315;-69
2021/11/04 02:56:20;;;;;;;0.98;0.77;;;21.40;53.20;;;;;;6269727;28;20040;-70
2021/11/04 02:59:23;;;;;;;1.20;0.90;;;21.40;53.20;;;;;;6269956;28;20389;-71
2021/11/04 03:02:24;;;;;;;1.23;0.80;;;21.40;53.30;;;;;;6248791;28;20022;-70
2021/11/04 03:05:24;;;;;;;1.00;0.82;;;21.40;53.30;;;;;;6219328;28;20423;-69
2021/11/04 03:08:25;;;;;;;1.02;0.93;;;21.40;53.30;;;;;;6258757;28;20044;-70
2021/11/04 03:11:26;;;;;;;1.08;0.80;;;21.40;53.30;;;;;;6270785;28;20037;-69
2021/11/04 03:14:26;;;;;;;1.35;1.05;;;21.40;53.30;;;;;;6269472;28;20028;-69
2021/11/04 03:17:28;;;;;;;1.23;0.93;;;21.40;53.20;;;;;;6264681;28;20104;-69
2021/11/04 03:20:29;;;;;;;1.05;0.85;;;21.40;53.30;;;;;;6244719;28;20386;-69
2021/11/04 03:23:30;;;;;;;2.17;0.98;;;21.40;53.30;;;;;;6244065;28;20083;-69
2021/11/04 03:26:34;;;;;;;1.80;1.02;;;21.40;53.30;;;;;;6249538;28;20033;-69
2021/11/04 03:29:40;;;;;;;0.93;0.85;;;21.40;53.30;;;;;;6238803;28;20088;-70
2021/11/04 03:32:41;;;;;;;1.27;1.00;;;21.40;53.30;;;;;;6257362;28;20013;-70
2021/11/04 03:35:43;;;;;;;1.42;1.08;;;21.40;53.20;;;;;;6266808;28;20184;-69
2021/11/04 03:38:43;;;;;;;1.27;1.10;;;21.40;53.20;;;;;;6268376;28;20059;-70
2021/11/04 03:41:46;;;;;;;1.40;0.93;;;21.40;53.20;;;;;;6268641;28;20025;-70
2021/11/04 03:44:47;;;;;;;1.00;0.90;;;21.40;53.30;;;;;;6268749;28;20025;-69
2021/11/04 03:47:49;;;;;;;1.98;1.20;;;21.40;53.30;;;;;;6251108;28;20029;-69
2021/11/04 03:50:49;;;;;;;1.73;1.10;;;21.40;53.30;;;;;;6244073;28;20034;-71
2021/11/04 03:53:50;;;;;;;1.63;0.95;;;21.40;53.30;;;;;;6268156;28;20598;-71
2021/11/04 03:56:53;;;;;;;1.27;0.95;;;21.40;53.30;;;;;;6268548;28;20025;-69
2021/11/04 04:00:37;;;;;;;1.85;1.17;;;21.40;53.40;;;;;;6267919;28;20416;-70
2021/11/04 04:03:37;;;;;;;1.75;1.05;;;21.40;53.30;;;;;;6268065;28;20033;-70
2021/11/04 04:06:38;;;;;;;1.20;0.93;;;21.40;53.40;;;;;;6263410;28;20064;-70
2021/11/04 04:09:39;;;;;;;2.45;1.08;;;21.40;53.30;;;;;;6243434;28;20030;-70
2021/11/04 04:12:40;;;;;;;1.88;1.30;;;21.40;53.30;;;;;;6243566;28;20045;-70
2021/11/04 04:15:40;;;;;;;1.55;0.93;;;21.40;53.30;;;;;;6243259;28;20056;-73
2021/11/04 04:18:41;;;;;;;1.48;1.20;;;21.40;53.40;;;;;;6246575;28;20029;-67
2021/11/04 04:21:42;;;;;;;1.13;0.90;;;21.40;53.30;;;;;;6241428;28;20116;-67
2021/11/04 04:24:42;;;;;;;1.75;1.20;;;21.40;53.30;;;;;;6242873;28;20032;-67
2021/11/04 04:27:43;;;;;;;1.45;1.10;;;21.40;53.40;;;;;;6267247;28;20565;-67
2021/11/04 04:30:43;;;;;;;1.45;1.10;;;21.40;53.30;;;;;;6241788;28;20498;-67
2021/11/04 04:33:44;;;;;;;2.00;1.15;;;21.40;53.30;;;;;;6267493;28;20047;-68
2021/11/04 04:36:44;;;;;;;1.95;1.35;;;21.40;53.30;;;;;;6259846;28;20048;-67
2021/11/04 04:39:45;;;;;;;1.40;1.20;;;21.40;53.30;;;;;;6250748;28;20025;-67
2021/11/04 04:42:46;;;;;;;1.73;1.30;;;21.40;53.40;;;;;;6259040;28;20060;-68
2021/11/04 04:45:46;;;;;;;1.63;1.10;;;21.40;53.30;;;;;;6267604;28;20025;-68
2021/11/04 04:48:48;;;;;;;1.67;1.23;;;21.40;53.30;;;;;;6268267;28;20029;-68
2021/11/04 04:51:48;;;;;;;1.33;1.15;;;21.40;53.30;;;;;;6266595;28;20120;-68
2021/11/04 04:54:49;;;;;;;1.83;1.27;;;21.40;53.30;;;;;;6265749;28;20025;-68
2021/11/04 04:57:49;;;;;;;1.73;1.50;;;21.40;53.30;;;;;;6251233;28;20390;-68
2021/11/04 05:00:50;;;;;;;1.90;1.50;;;21.40;53.30;;;;;;6242457;28;20075;-68
2021/11/04 05:03:50;;;;;;;2.10;1.60;;;21.40;53.30;;;;;;6242224;28;20380;-68
2021/11/04 05:06:51;;;;;;;1.80;1.38;;;21.40;53.30;;;;;;6248886;28;20371;-68
2021/11/04 05:09:51;;;;;;;1.50;1.35;;;21.40;53.30;;;;;;6266861;28;20029;-68
2021/11/04 05:12:52;;;;;;;1.83;1.40;;;21.40;53.30;;;;;;6266648;28;20045;-68
2021/11/04 05:15:52;;;;;;;2.13;1.40;;;21.40;54.00;;;;;;6267029;28;20410;-68
2021/11/04 05:18:53;;;;;;;2.25;1.38;;;21.40;53.30;;;;;;6250231;28;20022;-68
2021/11/04 05:21:53;;;;;;;2.00;1.40;;;21.40;53.30;;;;;;6247293;28;20025;-68
2021/11/04 05:24:54;;;;;;;2.00;1.60;;;21.40;53.30;;;;;;6262917;28;20092;-68
2021/11/04 05:27:55;;;;;;;2.08;1.60;;;21.40;53.40;;;;;;6261649;28;20383;-68
2021/11/04 05:30:56;;;;;;;1.80;1.38;;;21.40;53.30;;;;;;6248681;28;20176;-68
2021/11/04 05:33:58;;;;;;;1.40;1.30;;;21.40;53.30;;;;;;6241975;28;20025;-68
2021/11/04 05:36:58;;;;;;;1.85;1.40;;;21.40;53.30;;;;;;6262225;28;20049;-68
2021/11/04 05:39:59;;;;;;;2.20;1.60;;;21.40;53.30;;;;;;6262597;28;20043;-68
2021/11/04 05:42:59;;;;;;;2.10;1.48;;;21.40;53.30;;;;;;6266164;28;20021;-68
2021/11/04 05:46:01;;;;;;;2.05;1.50;;;21.40;53.30;;;;;;6265568;28;20056;-68
2021/11/04 05:49:02;;;;;;;2.00;1.60;;;21.40;53.30;;;;;;6244876;28;20467;-68
2021/11/04 05:52:03;;;;;;;2.55;1.70;;;21.40;53.30;;;;;;6257441;28;20021;-68
2021/11/04 05:55:04;;;;;;;3.30;1.88;;;21.40;53.30;;;;;;6271047;28;20475;-68
2021/11/04 05:58:04;;;;;;;2.00;1.73;;;21.40;53.30;;;;;;6253362;28;20655;-68
2021/11/04 06:01:05;;;;;;;2.17;1.80;;;21.40;53.20;;;;;;6243943;28;20040;-68
2021/11/04 06:04:05;;;;;;;2.03;1.58;;;21.40;53.30;;;;;;6269931;28;20021;-68
2021/11/04 06:07:06;;;;;;;2.13;1.80;;;21.40;53.20;;;;;;6271720;28;20037;-68
2021/11/04 06:10:07;;;;;;;3.53;2.30;;;21.40;53.30;;;;;;6240324;28;20045;-68
2021/11/04 06:13:07;;;;;;;2.20;1.73;;;21.40;53.20;;;;;;6249075;28;20059;-68
2021/11/04 06:16:13;;;;;;;2.45;1.70;;;21.40;53.30;;;;;;6239562;28;20152;-68
2021/11/04 06:19:14;;;;;;;2.70;1.92;;;21.40;53.20;;;;;;6244746;28;20021;-68
2021/11/04 06:22:14;;;;;;;2.80;1.83;;;21.40;53.20;;;;;;6247262;28;20036;-69
2021/11/04 06:25:15;;;;;;;2.20;1.80;;;21.40;53.20;;;;;;6263265;28;20029;-68
2021/11/04 06:28:15;;;;;;;2.90;2.10;;;21.40;53.20;;;;;;6251530;28;20549;-68
2021/11/04 06:31:16;;;;;;;3.25;1.98;;;21.40;53.20;;;;;;6245582;28;20028;-68
2021/11/04 06:34:17;;;;;;;4.68;1.88;;;21.40;53.20;;;;;;6269344;28;20025;-68
2021/11/04 06:37:17;;;;;;;2.65;1.77;;;21.40;53.20;;;;;;6257751;28;20056;-68
2021/11/04 06:40:24;;;;;;;2.28;1.77;;;21.40;53.20;;;;;;6236482;28;20034;-68
2021/11/04 06:43:24;;;;;;;2.63;2.00;;;21.40;53.20;;;;;;6240065;28;20080;-68
2021/11/04 06:46:26;;;;;;;2.65;2.08;;;21.40;53.30;;;;;;6266189;28;20033;-68
2021/11/04 06:49:32;;;;;;;2.22;1.90;;;21.40;53.30;;;;;;6266874;28;20461;-68
2021/11/04 06:52:43;;;;;;;3.22;2.08;;;21.40;53.30;;;;;;6268477;28;20065;-68
2021/11/04 06:55:45;;;;;;;2.75;2.00;;;21.40;53.40;;;;;;6268528;28;20052;-68
2021/11/04 06:58:49;;;;;;;3.20;2.28;;;21.40;53.40;;;;;;6229753;28;20091;-69
2021/11/04 07:01:54;;;;;;;3.13;2.17;;;21.40;53.40;;;;;;6247176;28;20175;-68
2021/11/04 07:04:56;;;;;;;;;;;21.40;53.40;;;;;;6249503;28;20033;-68
2021/11/04 07:07:59;;;;;;;3.47;2.40;;;21.40;53.40;;;;;;6253202;28;19912;-68
2021/11/04 07:11:01;;;;;;;2.70;2.00;;;21.40;53.40;;;;;;6256932;28;20051;-68
2021/11/04 07:14:03;;;;;;;2.58;1.95;;;21.40;53.50;;;;;;6269823;28;20401;-68
2021/11/04 07:17:04;;;;;;;3.17;2.40;;;21.40;53.50;;;;;;6249669;28;20024;-68
2021/11/04 07:20:06;;;;;;;2.90;2.38;;;21.30;53.50;;;;;;6270698;28;20500;-68
2021/11/04 07:23:12;;;;;;;2.88;2.20;;;21.40;53.50;;;;;;6246242;28;20038;-68
2021/11/04 07:26:13;;;;;;;3.35;2.67;;;21.40;53.50;;;;;;6257310;28;20032;-68
2021/11/04 07:29:16;;;;;;;4.78;2.67;;;21.40;53.50;;;;;;6242088;28;20105;-68
2021/11/04 07:32:18;;;;;;;4.25;2.45;;;21.40;53.50;;;;;;6236401;28;20056;-68
2021/11/04 07:35:26;;;;;;;6.55;2.33;;;21.40;53.50;;;;;;6259507;28;20482;-68
2021/11/04 07:38:26;;;;;;;2.42;2.10;;;21.40;53.50;;;;;;6245653;28;20395;-68
2021/11/04 07:41:30;;;;;;;3.67;2.38;;;21.40;53.60;;;;;;6244310;28;20053;-68
2021/11/04 07:44:36;;;;;;;4.10;2.55;;;21.40;53.60;;;;;;6245553;28;20018;-68
2021/11/04 07:47:40;;;;;;;2.70;2.30;;;21.40;53.50;;;;;;6257868;28;20471;-68
2021/11/04 07:50:41;;;;;;;3.63;2.83;;;21.40;53.50;;;;;;6237259;28;20453;-68
2021/11/04 07:53:42;;;;;;;4.88;2.50;;;21.40;53.50;;;;;;6266245;28;20040;-68
2021/11/04 07:56:42;;;;;;;3.80;2.30;;;21.40;53.50;;;;;;6268851;28;20033;-68
2021/11/04 07:59:43;;;;;;;5.68;2.65;;;21.40;53.50;;;;;;6268993;28;20032;-68
2021/11/04 08:02:44;;;;;;;4.03;2.53;;;21.40;53.40;;;;;;6268676;28;20020;-68
2021/11/04 08:05:47;;;;;;;3.72;2.72;;;21.40;53.50;;;;;;6258082;28;20375;-68
2021/11/04 08:08:48;;;;;;;3.67;2.67;;;21.50;53.60;;;;;;6269006;28;20462;-68
2021/11/04 08:11:49;;;;;;;4.32;3.15;;;21.40;53.50;;;;;;6267668;28;20094;-67
2021/11/04 08:14:49;;;;;;;4.18;2.58;;;21.40;53.60;;;;;;6264537;28;20060;-67
2021/11/04 08:17:56;;;;;;;3.80;2.72;;;21.40;53.60;;;;;;6257681;28;20026;-68
2021/11/04 08:21:01;;;;;;;6.93;3.20;;;21.40;54.30;;;;;;6240594;28;20021;-68
2021/11/04 08:24:07;;;;;;;6.68;3.08;;;21.40;53.60;;;;;;6257302;28;20025;-68
2021/11/04 08:27:10;;;;;;;4.70;2.85;;;21.40;53.50;;;;;;6263851;28;20086;-68
2021/11/04 08:30:15;;;;;;;4.72;2.92;;;21.40;53.50;;;;;;6257438;28;20062;-69
2021/11/04 08:33:16;;;;;;;4.22;2.92;;;21.40;53.60;;;;;;6266836;28;20501;-69
2021/11/04 08:36:16;;;;;;;11.18;4.68;;;21.40;53.50;;;;;;6263126;28;20018;-69
2021/11/04 08:39:17;;;;;;;14.23;9.57;;;21.40;53.40;;;;;;6267575;28;20032;-69
2021/11/04 08:42:18;;;;;;;11.25;8.23;;;21.40;53.00;;;;;;6268227;28;20029;-69
2021/11/04 08:45:19;;;;;;;23.40;14.30;;;21.40;52.50;;;;;;6267862;28;20037;-69
2021/11/04 08:48:20;;;;;;;23.05;13.60;;;21.40;51.70;;;;;;6268033;28;20036;-69
2021/11/04 08:51:22;;;;;;;23.45;14.00;;;21.40;52.00;;;;;;6268175;28;20509;-67
2021/11/04 08:54:23;;;;;;;22.90;15.45;;;21.40;51.80;;;;;;6263878;28;20386;-67
2021/11/04 08:57:29;;;;;;;22.30;15.90;;;21.30;51.40;;;;;;6268201;28;20449;-67
2021/11/04 09:00:30;;;;;;;24.80;15.15;;;21.30;51.20;;;;;;6266733;28;20025;-68
2021/11/04 09:03:48;;;;;;;28.60;17.70;;;21.30;51.30;;;;;;6247625;28;20075;-67
2021/11/04 09:06:51;;;;;;;27.95;17.20;;;21.30;50.40;;;;;;6248197;28;20107;-67
2021/11/04 09:09:52;;;;;;;26.48;17.60;;;21.30;50.40;;;;;;6268250;28;20026;-67
2021/11/04 09:12:53;;;;;;;26.70;17.58;;;21.30;50.30;;;;;;6256627;28;20446;-67
2021/11/04 09:15:53;;;;;;;27.48;18.42;;;21.30;51.30;;;;;;6246632;28;20060;-65
2021/11/04 09:18:54;;;;;;;22.98;16.17;;;21.30;49.90;;;;;;6242189;28;20025;-66
2021/11/04 09:21:58;;;;;;;26.05;18.02;;;21.30;50.40;;;;;;6266640;28;20609;-66
2021/11/04 09:24:59;;;;;;;24.80;16.92;;;21.30;49.40;;;;;;6268030;28;20068;-66
2021/11/04 09:28:00;;;;;;;24.67;16.40;;;21.30;49.40;;;;;;6252342;28;20108;-66
2021/11/04 09:31:01;;;;;;;25.05;15.23;;;21.30;49.80;;;;;;6242557;28;20032;-66
2021/11/04 09:34:02;;;;;;;21.27;15.18;;;21.30;49.40;;;;;;6272232;28;20036;-66
2021/11/04 09:37:04;;;;;;;25.35;14.70;;;21.30;49.60;;;;;;6268364;28;20025;-66
2021/11/04 09:40:06;;;;;;;19.30;13.98;;;21.30;50.10;;;;;;6254488;28;20021;-64
2021/11/04 09:43:07;;;;;;;23.15;15.05;;;21.30;49.80;;;;;;6260762;28;20026;-66
2021/11/04 09:46:09;;;;;;;23.17;14.32;;;21.30;49.90;;;;;;6266752;28;20123;-67
2021/11/04 09:49:10;;;;;;;21.13;12.98;;;21.30;49.90;;;;;;6262249;28;20036;-66
2021/11/04 09:52:10;;;;;;;20.38;12.90;;;21.30;49.90;;;;;;6272126;28;20475;-71
2021/11/04 09:55:20;;;;;;;18.70;12.73;;;21.30;50.10;;;;;;6271208;28;20474;-67
2021/11/04 09:58:20;;;;;;;17.02;12.05;;;21.30;50.10;;;;;;6252574;28;20029;-66
2021/11/04 10:01:28;;;;;;;17.88;12.50;;;21.30;50.20;;;;;;6243697;28;20043;-67
2021/11/04 10:04:32;;;;;;;20.40;11.65;;;21.30;50.40;;;;;;6245146;28;20021;-67
2021/11/04 10:07:45;;;;;;;19.40;11.88;;;21.30;51.10;;;;;;6268191;28;20028;-67
2021/11/04 10:11:12;;;;;;;16.52;11.18;;;21.30;50.60;;;;;;6270610;28;20043;-67
2021/11/04 10:14:16;;;;;;;16.65;11.20;;;21.40;50.70;;;;;;6252173;28;20486;-67
2021/11/04 10:17:37;;;;;;;18.77;11.55;;;21.30;50.70;;;;;;6264809;28;20544;-67
2021/11/04 10:20:38;;;;;;;16.67;11.10;;;21.40;50.80;;;;;;6265358;28;20021;-68
2021/11/04 10:23:44;;;;;;;16.92;11.23;;;21.40;50.90;;;;;;6254882;28;20030;-69
2021/11/04 10:26:53;;;;;;;16.83;10.82;;;21.40;51.00;;;;;;6257576;28;20037;-71
2021/11/04 10:29:53;;;;;;;14.63;10.10;;;21.40;51.10;;;;;;6246396;28;20481;-71
2021/11/04 10:32:55;;;;;;;14.65;10.25;;;21.40;50.90;;;;;;6257319;28;20036;-70
2021/11/04 10:36:23;;;;;;;14.65;10.10;;;21.40;50.70;;;;;;6249316;28;20509;-69
2021/11/04 10:39:27;;;;;;;15.13;10.10;;;21.40;50.80;;;;;;6252397;28;20048;-70
2021/11/04 10:42:28;;;;;;;16.05;10.40;;;21.40;50.80;;;;;;6271788;28;20711;-70
2021/11/04 10:45:29;;;;;;;14.68;10.40;;;21.40;50.80;;;;;;6269552;28;20035;-70
2021/11/04 10:48:31;;;;;;;13.45;9.30;;;21.40;50.80;;;;;;6270453;28;20417;-69
2021/11/04 10:51:33;;;;;;;14.68;9.75;;;21.40;50.80;;;;;;6251444;28;20029;-70
2021/11/04 10:54:44;;;;;;;13.45;9.23;;;21.40;51.00;;;;;;6270827;28;20013;-68
2021/11/04 10:57:45;;;;;;;13.43;8.57;;;21.40;50.90;;;;;;6263674;28;20158;-70
2021/11/04 11:00:46;;;;;;;15.18;8.52;;;21.40;51.00;;;;;;6255938;28;20035;-70
2021/11/04 11:03:53;;;;;;;16.33;8.70;;;21.40;51.00;;;;;;6255751;28;20030;-68
2021/11/04 11:06:58;;;;;;;11.88;8.25;;;21.40;51.00;;;;;;6259163;28;20090;-68
2021/11/04 11:09:59;;;;;;;;;;;21.40;51.00;;;;;;6265473;28;20025;-68
2021/11/04 11:13:01;;;;;;;10.88;7.78;;;21.40;51.20;;;;;;6249389;28;20293;-68
2021/11/04 11:16:04;;;;;;;12.57;7.72;;;21.40;51.40;;;;;;6243158;28;20034;-68
2021/11/04 11:19:07;;;;;;;14.63;7.95;;;21.40;51.50;;;;;;6264140;28;20028;-68
2021/11/04 11:22:09;;;;;;;12.90;7.10;;;21.40;51.40;;;;;;6235461;28;20025;-69
2021/11/04 11:25:10;;;;;;;10.65;7.45;;;21.40;51.50;;;;;;6264448;28;20040;-69
2021/11/04 11:28:11;;;;;;;10.57;7.20;;;21.40;51.60;;;;;;6235499;28;20026;-68
2021/11/04 11:31:16;;;;;;;12.30;7.38;;;21.40;51.70;;;;;;6231218;28;20025;-69
2021/11/04 11:34:20;;;;;;;12.70;6.90;;;21.40;51.70;;;;;;6249505;28;20489;-69
2021/11/04 11:37:23;;;;;;;12.90;7.70;;;21.40;51.70;;;;;;6246652;28;20324;-67
2021/11/04 11:40:29;;;;;;;11.43;7.10;;;21.50;51.90;;;;;;6238983;28;20030;-67
2021/11/04 11:43:53;;;;;;;9.07;6.05;;;21.50;51.80;;;;;;6260557;28;20486;-67
2021/11/04 11:47:04;;;;;;;10.85;6.70;;;21.50;51.80;;;;;;6243190;28;20544;-67
2021/11/04 11:50:21;;;;;;;9.63;6.55;;;21.50;51.80;;;;;;6254285;28;20427;-69
2021/11/04 11:53:41;;;;;;;10.05;6.40;;;21.50;51.90;;;;;;6273685;28;20025;-67
2021/11/04 11:57:22;;;;;;;7.35;5.40;;;21.50;51.90;;;;;;6252075;28;20029;-67
2021/11/04 12:00:53;;;;;;;9.50;6.72;;;21.50;51.90;;;;;;6216733;28;20491;-66
2021/11/04 12:04:06;;;;;;;12.27;5.88;;;21.50;52.30;;;;;;6250578;28;20041;-69
2021/11/04 12:07:29;;;;;;;11.50;7.10;;;21.50;52.00;;;;;;6242902;28;20122;-69
2021/11/04 12:10:31;;;;;;;10.52;5.75;;;21.50;52.00;;;;;;6213461;28;20177;-69
2021/11/04 12:13:45;;;;;;;11.52;6.22;;;21.50;52.20;;;;;;6266215;28;20049;-69
2021/11/04 12:17:01;;;;;;;15.40;5.85;;;21.60;52.20;;;;;;6244107;28;20045;-68
2021/11/04 12:20:05;;;;;;;12.75;6.25;;;21.60;52.10;;;;;;6248227;28;20047;-69
2021/11/04 12:23:07;;;;;;;8.07;5.25;;;21.60;52.10;;;;;;6267913;28;20029;-70
2021/11/04 12:26:07;;;;;;;9.88;5.68;;;21.60;52.80;;;;;;6243165;28;20024;-66
2021/11/04 12:29:10;;;;;;;10.85;6.07;;;21.60;52.00;;;;;;6244653;28;20509;-68
2021/11/04 12:32:16;;;;;;;11.00;5.70;;;21.60;52.00;;;;;;6256444;28;20029;-69
2021/11/04 12:35:16;;;;;;;9.48;5.63;;;21.60;52.10;;;;;;6233734;28;20021;-69
2021/11/04 12:38:19;;;;;;;10.23;5.68;;;21.60;52.00;;;;;;6260694;28;20490;-68
2021/11/04 12:41:31;;;;;;;12.15;5.22;;;21.60;52.10;;;;;;6246429;28;20036;-68
2021/11/04 12:44:36;;;;;;;8.48;4.93;;;21.60;52.20;;;;;;6243227;28;20033;-69
2021/11/04 12:47:38;;;;;;;15.70;5.32;;;21.60;52.30;;;;;;6234943;28;20080;-68
2021/11/04 12:50:40;;;;;;;9.90;5.22;;;21.60;52.40;;;;;;6233771;28;20546;-66
2021/11/04 12:53:53;;;;;;;6.63;4.80;;;21.60;52.50;;;;;;6254192;28;20025;-67
2021/11/04 12:57:04;;;;;;;7.00;4.60;;;21.60;52.50;;;;;;6265506;28;20120;-66
2021/11/04 13:00:05;;;;;;;6.38;4.70;;;21.60;52.60;;;;;;6245119;28;20032;-67
2021/11/04 13:03:07;;;;;;;7.30;5.00;;;21.60;52.60;;;;;;6225900;28;20434;-65
2021/11/04 13:06:08;;;;;;;7.75;4.70;;;21.60;52.60;;;;;;6235450;28;20038;-67
2021/11/04 13:09:09;;;;;;;6.22;4.63;;;21.60;52.70;;;;;;6238870;28;20044;-68
2021/11/04 13:12:13;;;;;;;13.88;4.65;;;21.60;52.70;;;;;;6228816;28;1121159;-66
2021/11/04 13:15:21;;;;;;;6.18;4.32;;;21.60;52.70;;;;;;6267310;28;20037;-66
2021/11/04 13:18:23;;;;;;;7.40;4.53;;;21.60;52.70;;;;;;6254307;28;20129;-65
2021/11/04 13:21:25;;;;;;;6.97;4.35;;;21.60;52.70;;;;;;6265745;28;20025;-66
2021/11/04 13:24:25;;;;;;;6.78;4.43;;;21.60;52.70;;;;;;6262540;28;20036;-66
2021/11/04 13:27:27;;;;;;;5.93;3.83;;;21.60;52.70;;;;;;6254096;28;20025;-66
2021/11/04 13:31:06;;;;;;;8.38;4.38;;;21.60;52.70;;;;;;6236067;28;20030;-69
2021/11/04 13:34:07;;;;;;;7.85;4.20;;;21.60;52.70;;;;;;6252365;28;20125;-70
2021/11/04 13:37:22;;;;;;;6.50;4.28;;;21.60;52.80;;;;;;6219370;28;20073;-71
2021/11/04 13:40:42;;;;;;;9.60;3.80;;;21.60;52.80;;;;;;6242579;28;20080;-67
2021/11/04 13:43:45;;;;;;;10.70;4.22;;;21.60;52.80;;;;;;6218481;28;20022;-65
2021/11/04 13:46:47;;;;;;;9.50;3.50;;;21.60;52.80;;;;;;6257690;28;20030;-66
2021/11/04 13:49:51;;;;;;;8.90;3.92;;;21.60;52.10;;;;;;6241194;28;20121;-66
2021/11/04 13:52:52;;;;;;;7.88;3.88;;;21.60;52.60;;;;;;6242076;28;20643;-65
2021/11/04 13:55:54;;;;;;;8.85;4.15;;;21.70;52.80;;;;;;6242764;28;20024;-65
2021/11/04 13:58:55;;;;;;;7.32;3.78;;;21.70;52.50;;;;;;6239362;28;20099;-66
2021/11/04 14:01:56;;;;;;;6.68;4.00;;;21.70;52.40;;;;;;6257793;28;20494;-66
2021/11/04 14:05:02;;;;;;;9.43;3.33;;;21.70;52.50;;;;;;6251631;28;20038;-65
2021/11/04 14:08:03;;;;;;;6.13;2.97;;;21.60;52.50;;;;;;6262013;28;20118;-67
2021/11/04 14:11:24;;;;;;;6.47;3.78;;;21.60;52.50;;;;;;6237432;28;20033;-66
2021/11/04 14:14:25;;;;;;;7.07;3.53;;;21.60;52.50;;;;;;6249489;28;20030;-66
2021/11/04 14:17:27;;;;;;;7.93;3.55;;;21.60;52.60;;;;;;6247208;28;20033;-65
2021/11/04 14:20:30;;;;;;;6.13;3.10;;;21.60;52.60;;;;;;6246211;28;20144;-66
2021/11/04 14:23:30;;;;;;;9.20;3.75;;;21.60;52.60;;;;;;6260720;28;20538;-66
2021/11/04 14:26:34;;;;;;;7.03;3.33;;;21.60;52.60;;;;;;6246485;28;20068;-65
2021/11/04 14:29:35;;;;;;;5.63;3.20;;;21.60;52.60;;;;;;6240359;28;20029;-65
2021/11/04 14:32:35;;;;;;;4.95;3.17;;;21.60;52.60;;;;;;6262699;28;20087;-66
2021/11/04 14:35:36;;;;;;;5.00;3.05;;;21.60;52.70;;;;;;6243858;28;20084;-65
2021/11/04 14:38:36;;;;;;;5.38;3.20;;;21.60;52.70;;;;;;6245572;28;20028;-66
2021/11/04 14:41:37;;;;;;;6.00;2.88;;;21.60;52.70;;;;;;6253568;28;20025;-66
2021/11/04 14:44:37;;;;;;;6.22;3.40;;;21.60;52.70;;;;;;6263340;28;20035;-65
2021/11/04 14:47:42;;;;;;;4.78;2.80;;;21.60;52.70;;;;;;6244396;28;20072;-67
2021/11/04 14:50:43;;;;;;;3.65;2.88;;;21.60;52.70;;;;;;6260055;28;20021;-66
2021/11/04 14:53:43;;;;;;;6.10;3.03;;;21.60;52.20;;;;;;6249174;28;20502;-65
2021/11/04 14:56:44;;;;;;;5.65;3.08;;;21.50;51.40;;;;;;6261696;28;20479;-66
2021/11/04 14:59:44;;;;;;;4.53;3.20;;;21.50;51.20;;;;;;6256473;28;20039;-64
2021/11/04 15:02:45;;;;;;;4.78;3.22;;;21.50;51.20;;;;;;6264755;28;20033;-67
2021/11/04 15:05:46;;;;;;;6.25;3.35;;;21.50;50.70;;;;;;6247438;28;20486;-67
2021/11/04 15:08:48;;;;;;;4.85;3.00;;;21.50;50.60;;;;;;6256574;28;20026;-66
2021/11/04 15:11:49;;;;;;;5.90;3.28;;;21.50;50.50;;;;;;6261361;28;20048;-66
2021/11/04 15:14:49;;;;;;;7.70;3.38;;;21.50;50.90;;;;;;6260054;28;20367;-66
2021/11/04 15:17:50;;;;;;;6.80;4.15;;;21.50;50.70;;;;;;6258161;28;20061;-72
2021/11/04 15:20:51;;;;;;;7.63;4.18;;;21.40;50.20;;;;;;6243856;28;20108;-65
2021/11/04 15:23:52;;;;;;;6.95;3.47;;;21.50;50.20;;;;;;6264230;28;20029;-64
2021/11/04 15:26:52;;;;;;;5.90;3.60;;;21.40;50.20;;;;;;6269083;28;20082;-66
2021/11/04 15:29:53;;;;;;;8.48;3.63;;;21.40;50.00;;;;;;6250002;28;20044;-65
2021/11/04 15:32:55;;;;;;;7.22;3.40;;;21.40;50.10;;;;;;6266148;28;20033;-66
2021/11/04 15:35:55;;;;;;;8.10;2.90;;;21.50;50.20;;;;;;6246500;28;20029;-65
2021/11/04 15:38:56;;;;;;;6.30;3.13;;;21.50;50.20;;;;;;6255684;28;20706;-65
2021/11/04 15:41:57;;;;;;;5.65;3.00;;;21.50;50.40;;;;;;6269338;28;20052;-66
2021/11/04 15:44:58;;;;;;;4.32;2.95;;;21.50;50.30;;;;;;6253585;28;20115;-66
2021/11/04 15:48:01;;;;;;;4.72;3.05;;;21.50;50.40;;;;;;6245888;28;20040;-66
2021/11/04 15:51:03;;;;;;;5.05;2.90;;;21.50;50.30;;;;;;6255293;28;20030;-66